Airport View

Enter ICAO identifier to see the current METAR for that AWOS.

KFNL for example

KCTB 221256Z AUTO 02003KT 10SM CLR 11/09 A3018

22 Jul 2014 13:23

Frequency: 119.025

Phone: 406-873-2939

Other Area AWOS: K8S0 - CWRY - CWFJ - CYQL

TAF KCTB 221120Z 2212/2312 VRB05KT P6SM BKN150 FM222000 19010KT P6SM SCT070 BKN150 PROB30 2222/2302 VRB25G35KT -TSRA BKN070CB FM230200 21007KT P6SM SCT120 FM230600 VRB05KT P6SM BKN250